Time;durP1;ratioP1;P1;durP2;ratioP2;P2;SDS_P1;SDS_P2;PMS_P1;PMS_P2;Temp;Humidity;BMP_temperature;BMP_pressure;BME280_temperature;BME280_humidity;BME280_pressure;Samples;Min_cycle;Max_cycle;Signal;HPM_P1;HPM_P2
2023/01/09 00:00:23;;;;;;;1.80;0.90;;;;;;;;;;5092189;28;20109;-81
2023/01/09 00:02:48;;;;;;;1.45;0.98;;;;;;;;;;5065388;28;20452;-81
2023/01/09 00:05:15;;;;;;;0.80;0.80;;;;;;;;;;5085455;28;20106;-81
2023/01/09 00:07:41;;;;;;;0.98;0.70;;;;;;;;;;5089641;28;20053;-81
2023/01/09 00:10:07;;;;;;;6.82;0.90;;;;;;;;;;5096888;28;20036;-81
2023/01/09 00:12:33;;;;;;;1.50;0.70;;;;;;;;;;5090709;28;20070;-81
2023/01/09 00:14:59;;;;;;;1.10;0.95;;;;;;;;;;5083485;28;20035;-81
2023/01/09 00:17:24;;;;;;;0.85;0.80;;;;;;;;;;5094742;28;20051;-81
2023/01/09 00:19:50;;;;;;;0.60;0.60;;;;;;;;;;5059984;28;20028;-80
2023/01/09 00:22:15;;;;;;;1.48;0.80;;;;;;;;;;5090736;28;20028;-81
2023/01/09 00:24:40;;;;;;;1.15;0.70;;;;;;;;;;5098982;28;20023;-81
2023/01/09 00:27:06;;;;;;;1.85;0.73;;;;;;;;;;5104263;28;20031;-81
2023/01/09 00:29:31;;;;;;;0.77;0.63;;;;;;;;;;5087976;28;20043;-81
2023/01/09 00:31:57;;;;;;;2.03;0.90;;;;;;;;;;5097008;28;20020;-82
2023/01/09 00:34:22;;;;;;;1.05;0.88;;;;;;;;;;5109843;28;20060;-81
2023/01/09 00:36:48;;;;;;;1.08;0.80;;;;;;;;;;5081801;28;20020;-81
2023/01/09 00:39:13;;;;;;;1.15;0.63;;;;;;;;;;5064908;28;20024;-80
2023/01/09 00:41:45;;;;;;;1.00;0.90;;;;;;;;;;5088370;28;20085;-80
2023/01/09 00:44:14;;;;;;;0.95;0.90;;;;;;;;;;5061413;28;20077;-81
2023/01/09 00:46:43;;;;;;;2.35;0.70;;;;;;;;;;5089486;28;20502;-81
2023/01/09 00:49:08;;;;;;;1.40;0.80;;;;;;;;;;5102567;28;20020;-80
2023/01/09 00:51:34;;;;;;;0.75;0.75;;;;;;;;;;5099992;28;20085;-80
2023/01/09 00:54:01;;;;;;;0.90;0.90;;;;;;;;;;5091407;28;20038;-81
2023/01/09 00:56:26;;;;;;;2.72;0.70;;;;;;;;;;5088537;28;20070;-80
2023/01/09 00:58:52;;;;;;;3.22;0.80;;;;;;;;;;5087925;28;20431;-81
2023/01/09 01:01:17;;;;;;;1.63;0.70;;;;;;;;;;5068776;28;20028;-80
2023/01/09 01:03:42;;;;;;;1.02;0.80;;;;;;;;;;5098610;28;20024;-81
2023/01/09 01:08:54;;;;;;;1.13;0.70;;;;;;;;;;5100773;28;20425;-80
2023/01/09 01:11:20;;;;;;;0.60;0.60;;;;;;;;;;5084191;28;20110;-80
2023/01/09 01:13:45;;;;;;;1.20;0.90;;;;;;;;;;5043508;28;20120;-80
2023/01/09 01:16:11;;;;;;;1.55;0.70;;;;;;;;;;5069403;28;20190;-80
2023/01/09 01:18:37;;;;;;;1.55;0.98;;;;;;;;;;5048920;28;20025;-82
2023/01/09 01:21:12;;;;;;;4.18;0.90;;;;;;;;;;5026448;28;20391;-80
2023/01/09 01:23:37;;;;;;;1.00;0.70;;;;;;;;;;5040941;28;20028;-82
2023/01/09 01:26:12;;;;;;;0.68;0.68;;;;;;;;;;5068490;28;20029;-82
2023/01/09 01:28:37;;;;;;;0.60;0.60;;;;;;;;;;5057320;28;20020;-82
2023/01/09 01:31:04;;;;;;;1.50;0.65;;;;;;;;;;5045546;28;20021;-82
2023/01/09 01:33:29;;;;;;;0.55;0.55;;;;;;;;;;5030115;28;20033;-83
2023/01/09 01:36:06;;;;;;;1.30;0.70;;;;;;;;;;5056447;28;20078;-82
2023/01/09 01:38:32;;;;;;;1.05;0.75;;;;;;;;;;5035409;28;20332;-82
2023/01/09 01:40:58;;;;;;;1.27;0.70;;;;;;;;;;5060019;28;20490;-81
2023/01/09 01:43:23;;;;;;;0.70;0.60;;;;;;;;;;5026245;28;20040;-81
2023/01/09 01:45:48;;;;;;;0.82;0.63;;;;;;;;;;5049492;28;20148;-82
2023/01/09 01:48:21;;;;;;;1.33;0.60;;;;;;;;;;5037538;28;20037;-81
2023/01/09 01:51:04;;;;;;;0.65;0.57;;;;;;;;;;5047778;28;20187;-81
2023/01/09 01:53:36;;;;;;;1.35;0.70;;;;;;;;;;5064387;28;20021;-82
2023/01/09 01:56:09;;;;;;;0.80;0.70;;;;;;;;;;5037713;28;20075;-82
2023/01/09 01:58:39;;;;;;;1.35;0.70;;;;;;;;;;5067341;28;20036;-83
2023/01/09 02:01:04;;;;;;;1.70;0.80;;;;;;;;;;5043145;28;20020;-83
2023/01/09 02:03:30;;;;;;;7.38;0.85;;;;;;;;;;5041729;28;20074;-82
2023/01/09 02:05:55;;;;;;;1.92;0.80;;;;;;;;;;5033684;28;20033;-82
2023/01/09 02:08:21;;;;;;;0.60;0.57;;;;;;;;;;5039573;28;20434;-82
2023/01/09 02:10:47;;;;;;;0.60;0.60;;;;;;;;;;5051249;28;20027;-82
2023/01/09 02:13:12;;;;;;;0.65;0.60;;;;;;;;;;5065324;28;20044;-81
2023/01/09 02:16:10;;;;;;;1.70;0.63;;;;;;;;;;5044059;28;20025;-81
2023/01/09 02:19:03;;;;;;;1.45;0.75;;;;;;;;;;5060254;28;20024;-81
2023/01/09 02:21:37;;;;;;;1.17;0.70;;;;;;;;;;5062942;28;20021;-81
2023/01/09 02:24:33;;;;;;;1.02;0.60;;;;;;;;;;5071787;28;20411;-82
2023/01/09 02:27:01;;;;;;;1.27;0.70;;;;;;;;;;5045429;28;20142;-82
2023/01/09 02:29:50;;;;;;;0.68;0.68;;;;;;;;;;5045418;28;20435;-82
2023/01/09 02:32:29;;;;;;;0.60;0.60;;;;;;;;;;5035764;28;20028;-82
2023/01/09 02:35:19;;;;;;;0.57;0.57;;;;;;;;;;5062617;28;20078;-82
2023/01/09 02:37:45;;;;;;;1.08;0.70;;;;;;;;;;5042427;28;20045;-82
2023/01/09 02:40:30;;;;;;;0.65;0.60;;;;;;;;;;5071533;28;20024;-81
2023/01/09 02:42:57;;;;;;;0.80;0.60;;;;;;;;;;5044810;28;20451;-81
2023/01/09 02:45:23;;;;;;;0.82;0.70;;;;;;;;;;5045774;28;20017;-81
2023/01/09 02:47:48;;;;;;;0.85;0.52;;;;;;;;;;5032080;28;20055;-81
2023/01/09 02:50:16;;;;;;;1.15;0.90;;;;;;;;;;5056642;28;20036;-82
2023/01/09 02:52:46;;;;;;;1.00;0.63;;;;;;;;;;5051077;28;20031;-81
2023/01/09 02:55:36;;;;;;;0.73;0.60;;;;;;;;;;5043548;28;20109;-81
2023/01/09 02:58:17;;;;;;;0.70;0.70;;;;;;;;;;5054909;28;20075;-81
2023/01/09 03:00:51;;;;;;;0.90;0.70;;;;;;;;;;5068742;28;20024;-82
2023/01/09 03:03:37;;;;;;;0.80;0.80;;;;;;;;;;5065167;28;20056;-82
2023/01/09 03:06:07;;;;;;;0.80;0.55;;;;;;;;;;5057814;28;20025;-81
2023/01/09 03:08:39;;;;;;;6.75;0.70;;;;;;;;;;5052135;28;20037;-81
2023/01/09 03:11:06;;;;;;;1.15;0.65;;;;;;;;;;5045535;28;20030;-81
2023/01/09 03:13:46;;;;;;;2.33;0.70;;;;;;;;;;5070373;28;20131;-80
2023/01/09 03:16:16;;;;;;;0.65;0.65;;;;;;;;;;5083864;28;20020;-82
2023/01/09 03:18:42;;;;;;;0.88;0.70;;;;;;;;;;5056169;28;20391;-82
2023/01/09 03:21:08;;;;;;;1.10;0.90;;;;;;;;;;5076007;28;20028;-81
2023/01/09 03:23:56;;;;;;;0.68;0.57;;;;;;;;;;5094304;28;20024;-81
2023/01/09 03:26:22;;;;;;;0.70;0.70;;;;;;;;;;5076171;28;20020;-81
2023/01/09 03:28:48;;;;;;;0.95;0.60;;;;;;;;;;5085168;28;20088;-81
2023/01/09 03:31:14;;;;;;;1.20;0.60;;;;;;;;;;5083082;28;20059;-81
2023/01/09 03:33:40;;;;;;;0.70;0.70;;;;;;;;;;5076812;28;20487;-81
2023/01/09 03:36:06;;;;;;;0.88;0.82;;;;;;;;;;5082642;28;20360;-81
2023/01/09 03:38:32;;;;;;;1.25;0.80;;;;;;;;;;5076774;28;20123;-81
2023/01/09 03:40:57;;;;;;;0.98;0.70;;;;;;;;;;5071237;28;20485;-82
2023/01/09 03:43:23;;;;;;;1.15;0.70;;;;;;;;;;5084134;28;20016;-81
2023/01/09 03:45:48;;;;;;;0.50;0.50;;;;;;;;;;5080879;28;20028;-81
2023/01/09 03:48:13;;;;;;;1.08;0.70;;;;;;;;;;5090716;28;20034;-81
2023/01/09 03:50:41;;;;;;;1.75;0.70;;;;;;;;;;5077911;28;20026;-81
2023/01/09 03:53:07;;;;;;;1.40;0.75;;;;;;;;;;5093777;28;20028;-81
2023/01/09 03:55:32;;;;;;;1.40;0.80;;;;;;;;;;5085205;28;20107;-81
2023/01/09 03:57:57;;;;;;;0.88;0.80;;;;;;;;;;5093720;28;20059;-82
2023/01/09 04:00:23;;;;;;;2.03;1.00;;;;;;;;;;5075444;28;20039;-82
2023/01/09 04:02:48;;;;;;;0.85;0.70;;;;;;;;;;5079316;28;20050;-82
2023/01/09 04:05:14;;;;;;;0.85;0.73;;;;;;;;;;5093720;28;20386;-82
2023/01/09 04:07:39;;;;;;;1.35;0.65;;;;;;;;;;5093669;28;20028;-82
2023/01/09 04:10:05;;;;;;;2.42;0.80;;;;;;;;;;5089574;28;20437;-81
2023/01/09 04:12:30;;;;;;;1.98;0.82;;;;;;;;;;5093336;28;20043;-82
2023/01/09 04:14:56;;;;;;;0.77;0.77;;;;;;;;;;5093689;28;20078;-81
2023/01/09 04:17:21;;;;;;;1.08;0.70;;;;;;;;;;5066990;28;20024;-81
2023/01/09 04:19:47;;;;;;;1.23;0.70;;;;;;;;;;5093343;28;20035;-81
2023/01/09 04:22:12;;;;;;;1.45;0.90;;;;;;;;;;5093374;28;20076;-81
2023/01/09 04:24:38;;;;;;;3.17;0.80;;;;;;;;;;5093336;28;20024;-81
2023/01/09 04:27:03;;;;;;;1.13;0.63;;;;;;;;;;5093190;28;20335;-82
2023/01/09 04:29:28;;;;;;;1.20;0.90;;;;;;;;;;5083032;28;20043;-82
2023/01/09 04:31:54;;;;;;;2.38;0.80;;;;;;;;;;5087691;28;20417;-82
2023/01/09 04:34:24;;;;;;;0.93;0.80;;;;;;;;;;5075590;28;20501;-82
2023/01/09 04:36:50;;;;;;;0.57;0.57;;;;;;;;;;5089059;28;20466;-82
2023/01/09 04:39:16;;;;;;;0.77;0.77;;;;;;;;;;5082460;28;20371;-82
2023/01/09 04:41:50;;;;;;;1.15;0.80;;;;;;;;;;5080928;28;20106;-82
2023/01/09 04:44:17;;;;;;;1.20;0.80;;;;;;;;;;5090570;28;20031;-82
2023/01/09 04:46:43;;;;;;;1.55;0.68;;;;;;;;;;5077427;28;20397;-82
2023/01/09 04:49:08;;;;;;;0.80;0.80;;;;;;;;;;5085375;28;20020;-82
2023/01/09 04:51:34;;;;;;;2.13;0.73;;;;;;;;;;5092959;28;20059;-82
2023/01/09 04:53:59;;;;;;;1.80;0.65;;;;;;;;;;5078300;28;20062;-81
2023/01/09 04:56:24;;;;;;;4.80;0.80;;;;;;;;;;5049614;28;20032;-82
2023/01/09 04:58:50;;;;;;;0.90;0.75;;;;;;;;;;5092803;28;20176;-81
2023/01/09 05:01:15;;;;;;;1.02;0.70;;;;;;;;;;5092710;28;20028;-82
2023/01/09 05:03:41;;;;;;;1.45;0.73;;;;;;;;;;5093076;28;20032;-81
2023/01/09 05:06:06;;;;;;;2.33;1.15;;;;;;;;;;5077515;28;20129;-82
2023/01/09 05:08:32;;;;;;;1.50;0.80;;;;;;;;;;5093200;28;20481;-81
2023/01/09 05:10:57;;;;;;;1.67;0.80;;;;;;;;;;5093075;28;20027;-82
2023/01/09 05:13:22;;;;;;;1.02;0.70;;;;;;;;;;5083450;28;20403;-82
2023/01/09 05:15:48;;;;;;;2.97;0.80;;;;;;;;;;5077532;28;20037;-81
2023/01/09 05:18:13;;;;;;;0.73;0.73;;;;;;;;;;5082079;28;20032;-79
2023/01/09 05:20:39;;;;;;;1.98;0.90;;;;;;;;;;5090437;28;20031;-77
2023/01/09 05:23:04;;;;;;;3.03;0.88;;;;;;;;;;5063577;28;20024;-76
2023/01/09 05:25:30;;;;;;;1.65;1.05;;;;;;;;;;5082459;28;20463;-76
2023/01/09 05:27:55;;;;;;;5.30;1.10;;;;;;;;;;5092971;28;20126;-76
2023/01/09 05:30:20;;;;;;;5.97;1.50;;;;;;;;;;5092853;28;20028;-76
2023/01/09 05:32:46;;;;;;;7.53;2.10;;;;;;;;;;5088465;28;20031;-76
2023/01/09 05:35:11;;;;;;;7.75;2.28;;;;;;;;;;5092888;28;20487;-76
2023/01/09 05:37:36;;;;;;;8.15;1.90;;;;;;;;;;5092985;28;20386;-77
2023/01/09 05:40:02;;;;;;;8.65;2.15;;;;;;;;;;5092770;28;20024;-77
2023/01/09 05:42:28;;;;;;;9.15;2.45;;;;;;;;;;5076328;28;20092;-76
2023/01/09 05:44:53;;;;;;;9.00;2.50;;;;;;;;;;5096602;28;20042;-77
2023/01/09 05:47:18;;;;;;;5.90;2.17;;;;;;;;;;5086125;28;20020;-78
2023/01/09 05:49:44;;;;;;;9.82;2.50;;;;;;;;;;5084332;28;20066;-78
2023/01/09 05:52:09;;;;;;;5.88;2.40;;;;;;;;;;5096258;28;20036;-78
2023/01/09 05:54:35;;;;;;;10.30;2.25;;;;;;;;;;5063167;28;20082;-77
2023/01/09 05:57:00;;;;;;;9.27;2.30;;;;;;;;;;5096559;28;20108;-78
2023/01/09 05:59:25;;;;;;;9.20;2.65;;;;;;;;;;5096656;28;20028;-80
2023/01/09 06:01:54;;;;;;;13.70;3.15;;;;;;;;;;5096235;28;20526;-80
2023/01/09 06:04:19;;;;;;;12.63;3.00;;;;;;;;;;5045353;28;20028;-79
2023/01/09 06:06:44;;;;;;;12.18;2.88;;;;;;;;;;5096612;28;20024;-79
2023/01/09 06:09:10;;;;;;;10.02;3.08;;;;;;;;;;5096715;28;20467;-79
2023/01/09 06:11:37;;;;;;;10.48;2.75;;;;;;;;;;5096356;28;20073;-79
2023/01/09 06:14:03;;;;;;;11.95;2.80;;;;;;;;;;5091461;28;20437;-79
2023/01/09 06:16:29;;;;;;;10.00;2.85;;;;;;;;;;5072851;28;20025;-79
2023/01/09 06:18:54;;;;;;;8.00;2.42;;;;;;;;;;5068167;28;20103;-79
2023/01/09 06:21:20;;;;;;;17.23;3.28;;;;;;;;;;5051966;28;20501;-79
2023/01/09 06:23:46;;;;;;;7.90;2.33;;;;;;;;;;5076301;28;20020;-79
2023/01/09 06:26:11;;;;;;;21.20;2.90;;;;;;;;;;5042715;28;20425;-79
2023/01/09 06:28:37;;;;;;;7.50;1.90;;;;;;;;;;5060731;28;20036;-79
2023/01/09 06:31:02;;;;;;;13.43;2.75;;;;;;;;;;5053836;28;20036;-79
2023/01/09 06:33:28;;;;;;;11.68;2.40;;;;;;;;;;5086641;28;20028;-79
2023/01/09 06:35:53;;;;;;;7.47;2.22;;;;;;;;;;5095219;28;20020;-79
2023/01/09 06:38:19;;;;;;;7.45;2.35;;;;;;;;;;5095458;28;20032;-80
2023/01/09 06:40:44;;;;;;;5.07;1.75;;;;;;;;;;5075917;28;20029;-80
2023/01/09 06:43:10;;;;;;;9.35;2.78;;;;;;;;;;5096763;28;20023;-80
2023/01/09 06:45:35;;;;;;;6.53;2.28;;;;;;;;;;5095915;28;20058;-79
2023/01/09 06:48:01;;;;;;;13.32;2.15;;;;;;;;;;5060589;28;20055;-78
2023/01/09 06:50:26;;;;;;;9.60;2.17;;;;;;;;;;5095545;28;20081;-80
2023/01/09 06:52:51;;;;;;;11.43;2.78;;;;;;;;;;5060694;28;20530;-80
2023/01/09 06:55:17;;;;;;;4.18;1.77;;;;;;;;;;5076391;28;20028;-82
2023/01/09 06:57:42;;;;;;;8.23;2.30;;;;;;;;;;5095640;28;20024;-80
2023/01/09 07:00:08;;;;;;;5.95;1.77;;;;;;;;;;5095686;28;20055;-80
2023/01/09 07:02:34;;;;;;;8.43;2.22;;;;;;;;;;5094969;28;20043;-78
2023/01/09 07:04:59;;;;;;;4.10;1.80;;;;;;;;;;5094950;28;20032;-80
2023/01/09 07:07:25;;;;;;;8.30;1.83;;;;;;;;;;5095270;28;20032;-78
2023/01/09 07:09:50;;;;;;;6.30;1.75;;;;;;;;;;5095374;28;20024;-78
2023/01/09 07:12:16;;;;;;;5.53;1.70;;;;;;;;;;5076628;28;20490;-80
2023/01/09 07:14:41;;;;;;;3.30;1.65;;;;;;;;;;5095215;28;20115;-80
2023/01/09 07:17:06;;;;;;;4.30;1.90;;;;;;;;;;5060492;28;20036;-79
2023/01/09 07:19:32;;;;;;;3.03;1.60;;;;;;;;;;5095332;28;20063;-81
2023/01/09 07:21:57;;;;;;;3.95;1.45;;;;;;;;;;5074493;28;20043;-79
2023/01/09 07:24:23;;;;;;;4.43;1.70;;;;;;;;;;5094967;28;20020;-79
2023/01/09 07:26:48;;;;;;;2.40;1.23;;;;;;;;;;5076746;28;20052;-80
2023/01/09 07:29:13;;;;;;;9.90;1.58;;;;;;;;;;5092319;28;20032;-79
2023/01/09 07:31:39;;;;;;;4.32;1.40;;;;;;;;;;5070937;28;20028;-79
2023/01/09 07:34:04;;;;;;;4.07;1.50;;;;;;;;;;5093964;28;20074;-80
2023/01/09 07:36:29;;;;;;;4.03;1.70;;;;;;;;;;5076041;28;20028;-80
2023/01/09 07:38:55;;;;;;;3.30;1.30;;;;;;;;;;5075621;28;20051;-79
2023/01/09 07:41:20;;;;;;;3.35;1.60;;;;;;;;;;5073198;28;20028;-80
2023/01/09 07:43:46;;;;;;;2.10;1.20;;;;;;;;;;5075598;28;20020;-80
2023/01/09 07:46:11;;;;;;;3.72;1.63;;;;;;;;;;5075078;28;20104;-79
2023/01/09 07:48:36;;;;;;;2.30;1.05;;;;;;;;;;5094034;28;20501;-80
2023/01/09 07:51:02;;;;;;;3.33;1.38;;;;;;;;;;5059900;28;20433;-78
2023/01/09 07:53:27;;;;;;;2.30;1.45;;;;;;;;;;5076643;28;20024;-79
2023/01/09 07:55:53;;;;;;;3.38;1.30;;;;;;;;;;5059613;28;20032;-78
2023/01/09 07:58:18;;;;;;;3.15;1.30;;;;;;;;;;5094610;28;20355;-78
2023/01/09 08:00:43;;;;;;;3.40;1.27;;;;;;;;;;5058179;28;20038;-78
2023/01/09 08:03:09;;;;;;;2.30;1.10;;;;;;;;;;5074277;28;20036;-78
2023/01/09 08:05:34;;;;;;;2.55;1.30;;;;;;;;;;5074297;28;20386;-79
2023/01/09 08:08:00;;;;;;;4.60;1.02;;;;;;;;;;5075400;28;20028;-79
2023/01/09 08:10:26;;;;;;;2.60;1.17;;;;;;;;;;5059503;28;20383;-81
2023/01/09 08:12:51;;;;;;;3.38;1.30;;;;;;;;;;5071810;28;20044;-80
2023/01/09 08:15:17;;;;;;;3.30;1.38;;;;;;;;;;5075741;28;20131;-80
2023/01/09 08:17:44;;;;;;;3.35;1.30;;;;;;;;;;5075503;28;20032;-79
2023/01/09 08:20:13;;;;;;;2.63;1.33;;;;;;;;;;5093799;28;20085;-79
2023/01/09 08:22:43;;;;;;;3.67;1.08;;;;;;;;;;5093817;28;20106;-81
2023/01/09 08:25:09;;;;;;;2.20;1.17;;;;;;;;;;5058921;28;20024;-80
2023/01/09 08:27:35;;;;;;;4.18;1.40;;;;;;;;;;5093927;28;20028;-81
2023/01/09 08:30:01;;;;;;;2.65;1.00;;;;;;;;;;5093741;28;20024;-80
2023/01/09 08:32:26;;;;;;;1.33;1.00;;;;;;;;;;5075685;28;20060;-80
2023/01/09 08:34:51;;;;;;;2.30;1.00;;;;;;;;;;5093893;28;20118;-80
2023/01/09 08:37:17;;;;;;;4.18;1.13;;;;;;;;;;5093837;28;20531;-80
2023/01/09 08:39:42;;;;;;;1.48;0.75;;;;;;;;;;5075397;28;20080;-80
2023/01/09 08:47:35;;;;;;;1.73;1.00;;;;;;;;;;5088190;28;20067;-80
2023/01/09 08:50:01;;;;;;;2.15;1.08;;;;;;;;;;5058746;28;20470;-80
2023/01/09 08:52:29;;;;;;;2.05;1.10;;;;;;;;;;5075353;28;20119;-80
2023/01/09 08:54:54;;;;;;;2.63;1.20;;;;;;;;;;5075822;28;20028;-80
2023/01/09 08:57:20;;;;;;;1.23;0.93;;;;;;;;;;5075161;28;20034;-80
2023/01/09 08:59:45;;;;;;;1.65;0.80;;;;;;;;;;5093383;28;20031;-80
2023/01/09 09:02:11;;;;;;;2.22;0.93;;;;;;;;;;5093361;28;20063;-80
2023/01/09 09:04:36;;;;;;;2.67;1.30;;;;;;;;;;5058530;28;20042;-80
2023/01/09 09:07:01;;;;;;;3.08;1.00;;;;;;;;;;5058678;28;20040;-80
2023/01/09 09:09:27;;;;;;;1.02;0.73;;;;;;;;;;5093509;28;20398;-80
2023/01/09 09:11:52;;;;;;;1.33;0.80;;;;;;;;;;5075150;28;20501;-81
2023/01/09 09:17:21;;;;;;;1.83;0.88;;;;;;;;;;5072332;28;20395;-80
2023/01/09 09:19:47;;;;;;;1.42;0.80;;;;;;;;;;5055139;28;20047;-80
2023/01/09 09:22:12;;;;;;;0.60;0.60;;;;;;;;;;5067719;28;20071;-81
2023/01/09 09:24:37;;;;;;;1.85;0.70;;;;;;;;;;5097249;28;20030;-81
2023/01/09 09:27:03;;;;;;;1.20;0.57;;;;;;;;;;5097777;28;20471;-81
2023/01/09 09:29:29;;;;;;;1.05;0.75;;;;;;;;;;5079501;28;20102;-81
2023/01/09 09:31:54;;;;;;;1.25;0.70;;;;;;;;;;5097498;28;20059;-81
2023/01/09 09:34:19;;;;;;;2.35;1.08;;;;;;;;;;5079045;28;20036;-81
2023/01/09 09:36:45;;;;;;;1.67;1.00;;;;;;;;;;5078858;28;20035;-80
2023/01/09 09:39:10;;;;;;;1.20;0.80;;;;;;;;;;5063002;28;20032;-80
2023/01/09 09:45:01;;;;;;;1.27;0.80;;;;;;;;;;5096985;28;20031;-80
2023/01/09 09:47:42;;;;;;;1.02;0.80;;;;;;;;;;5097005;28;20484;-80
2023/01/09 09:50:22;;;;;;;1.25;0.98;;;;;;;;;;5096980;28;20028;-81
2023/01/09 09:52:58;;;;;;;2.45;1.00;;;;;;;;;;5078743;28;20115;-79
2023/01/09 09:55:34;;;;;;;1.38;0.80;;;;;;;;;;5078634;28;20016;-79
2023/01/09 09:58:03;;;;;;;2.08;0.77;;;;;;;;;;5078853;28;20020;-80
2023/01/09 10:00:29;;;;;;;0.98;0.70;;;;;;;;;;5078639;28;20057;-80
2023/01/09 10:03:02;;;;;;;1.02;0.77;;;;;;;;;;5078425;28;20107;-80
2023/01/09 10:05:29;;;;;;;;;;;;;;;;;;5062196;28;20027;-78
2023/01/09 10:07:55;;;;;;;1.73;0.82;;;;;;;;;;5078694;28;19916;-80
2023/01/09 10:10:30;;;;;;;1.30;0.80;;;;;;;;;;5078753;28;20032;-80
2023/01/09 10:12:58;;;;;;;2.35;1.00;;;;;;;;;;5078074;28;20044;-80
2023/01/09 10:15:37;;;;;;;2.15;0.70;;;;;;;;;;5078658;28;20107;-80
2023/01/09 10:18:22;;;;;;;2.45;0.98;;;;;;;;;;5078603;28;20382;-80
2023/01/09 10:20:53;;;;;;;0.98;0.70;;;;;;;;;;5061457;28;20122;-80
2023/01/09 10:23:27;;;;;;;2.28;0.90;;;;;;;;;;5078315;28;20023;-80
2023/01/09 10:25:52;;;;;;;;;;;;;;;;;;5097045;28;20066;-78
2023/01/09 10:28:39;;;;;;;2.08;0.73;;;;;;;;;;5096111;28;20374;-81
2023/01/09 10:31:39;;;;;;;0.82;0.63;;;;;;;;;;5096419;28;20063;-81
2023/01/09 10:34:35;;;;;;;1.23;0.88;;;;;;;;;;5078135;28;20066;-80
2023/01/09 10:37:16;;;;;;;1.35;0.85;;;;;;;;;;5060236;28;20062;-80
2023/01/09 10:39:51;;;;;;;1.05;0.60;;;;;;;;;;5077836;28;20035;-80
2023/01/09 10:42:32;;;;;;;1.35;0.80;;;;;;;;;;5096624;28;20059;-80
2023/01/09 10:45:03;;;;;;;1.60;1.00;;;;;;;;;;5061951;28;20423;-80
2023/01/09 10:47:34;;;;;;;1.80;0.80;;;;;;;;;;5095728;28;20024;-80
2023/01/09 10:50:02;;;;;;;0.98;0.75;;;;;;;;;;5060799;28;20546;-80
2023/01/09 10:52:36;;;;;;;1.10;0.57;;;;;;;;;;5077474;28;20070;-80
2023/01/09 10:55:15;;;;;;;0.80;0.73;;;;;;;;;;5096148;28;20024;-80
2023/01/09 10:57:44;;;;;;;1.45;0.90;;;;;;;;;;5095632;28;20024;-80
2023/01/09 11:00:23;;;;;;;3.40;1.10;;;;;;;;;;5060839;28;20035;-81
2023/01/09 11:02:50;;;;;;;1.30;0.73;;;;;;;;;;5077396;28;20020;-80
2023/01/09 11:05:27;;;;;;;2.15;1.13;;;;;;;;;;5077304;28;20146;-80
2023/01/09 11:08:31;;;;;;;2.58;0.85;;;;;;;;;;5077257;28;20463;-80
2023/01/09 11:10:59;;;;;;;1.30;0.80;;;;;;;;;;5095499;28;20046;-80
2023/01/09 11:13:25;;;;;;;0.73;0.73;;;;;;;;;;5077052;28;20040;-79
2023/01/09 11:16:08;;;;;;;3.22;1.10;;;;;;;;;;5095362;28;20077;-80
2023/01/09 11:18:37;;;;;;;1.77;1.00;;;;;;;;;;5077311;28;20024;-80
2023/01/09 11:21:21;;;;;;;2.50;1.00;;;;;;;;;;5095160;28;20035;-80
2023/01/09 11:23:48;;;;;;;2.35;1.10;;;;;;;;;;5094910;28;20020;-80
2023/01/09 11:26:22;;;;;;;2.85;1.10;;;;;;;;;;5077039;28;20055;-80
2023/01/09 11:29:04;;;;;;;1.77;1.15;;;;;;;;;;5094967;28;20028;-81
2023/01/09 11:31:29;;;;;;;3.78;0.90;;;;;;;;;;5077046;28;20036;-81
2023/01/09 11:33:55;;;;;;;4.40;0.88;;;;;;;;;;5095262;28;20036;-80
2023/01/09 11:36:23;;;;;;;3.85;0.80;;;;;;;;;;5095046;28;20024;-81
2023/01/09 11:38:57;;;;;;;2.45;0.95;;;;;;;;;;5060038;28;20043;-81
2023/01/09 11:41:26;;;;;;;4.05;1.20;;;;;;;;;;5093242;28;20069;-79
2023/01/09 11:43:53;;;;;;;3.45;1.33;;;;;;;;;;5059091;28;20027;-80
2023/01/09 11:46:40;;;;;;;4.22;1.10;;;;;;;;;;5075852;28;20031;-80
2023/01/09 11:49:24;;;;;;;3.13;1.10;;;;;;;;;;5076006;28;20134;-81
2023/01/09 11:52:14;;;;;;;3.85;1.17;;;;;;;;;;5059001;28;20535;-82
2023/01/09 11:55:03;;;;;;;4.68;1.30;;;;;;;;;;5093845;28;20028;-82
2023/01/09 11:57:28;;;;;;;2.33;1.15;;;;;;;;;;5075711;28;20076;-81
2023/01/09 11:59:58;;;;;;;4.35;1.10;;;;;;;;;;5093862;28;20024;-80
2023/01/09 12:02:44;;;;;;;5.47;1.48;;;;;;;;;;5076665;28;20031;-80
2023/01/09 12:05:28;;;;;;;3.17;1.08;;;;;;;;;;5076286;28;20020;-81
2023/01/09 12:08:14;;;;;;;3.35;1.50;;;;;;;;;;5094461;28;20043;-80
2023/01/09 12:10:54;;;;;;;2.88;1.23;;;;;;;;;;5093701;28;20032;-81
2023/01/09 12:13:39;;;;;;;4.65;1.38;;;;;;;;;;5075799;28;20048;-81
2023/01/09 12:16:47;;;;;;;2.78;1.00;;;;;;;;;;5076252;28;20046;-80
2023/01/09 12:19:21;;;;;;;3.60;1.42;;;;;;;;;;5076080;28;20038;-81
2023/01/09 12:22:06;;;;;;;3.65;1.40;;;;;;;;;;5075753;28;20028;-80
2023/01/09 12:24:47;;;;;;;4.40;1.52;;;;;;;;;;5076031;28;20055;-81
2023/01/09 12:27:21;;;;;;;3.38;1.40;;;;;;;;;;5076289;28;20028;-81
2023/01/09 12:30:38;;;;;;;6.18;1.60;;;;;;;;;;5075712;28;20051;-81
2023/01/09 12:33:33;;;;;;;6.13;1.80;;;;;;;;;;5038162;28;20031;-81
2023/01/09 12:36:10;;;;;;;4.97;1.50;;;;;;;;;;5059105;28;20043;-81
2023/01/09 12:38:38;;;;;;;4.57;1.60;;;;;;;;;;5093983;28;20038;-80
2023/01/09 12:41:22;;;;;;;4.82;1.70;;;;;;;;;;5075506;28;20066;-81
2023/01/09 12:44:37;;;;;;;4.07;1.70;;;;;;;;;;5093631;28;20023;-81
2023/01/09 12:47:25;;;;;;;5.68;1.80;;;;;;;;;;4992111;28;20496;-80
2023/01/09 12:50:09;;;;;;;3.58;1.30;;;;;;;;;;5069841;28;20028;-81
2023/01/09 12:52:38;;;;;;;3.65;1.50;;;;;;;;;;5074471;28;20101;-81
2023/01/09 12:55:23;;;;;;;5.40;1.60;;;;;;;;;;5058588;28;20062;-81
2023/01/09 12:57:51;;;;;;;3.30;1.08;;;;;;;;;;5093479;28;20466;-81
2023/01/09 13:00:23;;;;;;;2.05;1.30;;;;;;;;;;5058704;28;20531;-81
2023/01/09 13:02:49;;;;;;;3.00;1.65;;;;;;;;;;5075763;28;20081;-81
2023/01/09 13:05:19;;;;;;;2.70;1.25;;;;;;;;;;5075223;28;20111;-81
2023/01/09 13:08:04;;;;;;;4.15;1.67;;;;;;;;;;5075714;28;20451;-80
2023/01/09 13:10:32;;;;;;;11.07;1.95;;;;;;;;;;5058595;28;20058;-80
2023/01/09 13:12:59;;;;;;;4.22;1.25;;;;;;;;;;5058557;28;20104;-79
2023/01/09 13:15:26;;;;;;;4.78;1.35;;;;;;;;;;5075795;28;20024;-78
2023/01/09 13:17:54;;;;;;;4.72;1.40;;;;;;;;;;5075627;28;20020;-81
2023/01/09 13:20:24;;;;;;;3.08;1.42;;;;;;;;;;5075466;28;20024;-80
2023/01/09 13:22:51;;;;;;;5.18;1.55;;;;;;;;;;5058443;28;20023;-81
2023/01/09 13:25:36;;;;;;;8.77;1.67;;;;;;;;;;5093244;28;20036;-80
2023/01/09 13:28:35;;;;;;;4.88;1.30;;;;;;;;;;5075248;28;20031;-79
2023/01/09 13:31:10;;;;;;;4.25;1.10;;;;;;;;;;5056659;28;20028;-80
2023/01/09 13:33:42;;;;;;;3.92;1.40;;;;;;;;;;5093331;28;20524;-79
2023/01/09 13:36:31;;;;;;;6.32;1.40;;;;;;;;;;5058383;28;20028;-77
2023/01/09 13:38:57;;;;;;;2.92;1.00;;;;;;;;;;5075832;28;20035;-79
2023/01/09 13:44:18;;;;;;;6.50;1.50;;;;;;;;;;5077745;28;20058;-77
2023/01/09 13:46:47;;;;;;;3.42;1.20;;;;;;;;;;5074804;28;20490;-77
2023/01/09 13:49:40;;;;;;;5.18;1.60;;;;;;;;;;5074493;28;20036;-77
2023/01/09 13:52:24;;;;;;;3.22;1.20;;;;;;;;;;5070087;28;20435;-77
2023/01/09 13:54:59;;;;;;;3.33;1.45;;;;;;;;;;5087532;28;20032;-77
2023/01/09 13:57:31;;;;;;;2.80;1.05;;;;;;;;;;5074867;28;20032;-77
2023/01/09 14:00:11;;;;;;;1.95;1.17;;;;;;;;;;5076388;28;20066;-78
2023/01/09 14:02:37;;;;;;;4.82;1.67;;;;;;;;;;5076206;28;20062;-77
2023/01/09 14:05:13;;;;;;;5.65;1.30;;;;;;;;;;5078098;28;20027;-78
2023/01/09 14:07:44;;;;;;;2.80;1.48;;;;;;;;;;5078797;28;20059;-78
2023/01/09 14:10:34;;;;;;;3.03;1.20;;;;;;;;;;5062536;28;20157;-78
2023/01/09 14:13:05;;;;;;;3.17;1.30;;;;;;;;;;5078213;28;20036;-78
2023/01/09 14:15:40;;;;;;;7.80;1.92;;;;;;;;;;5096486;28;20418;-78
2023/01/09 14:18:23;;;;;;;4.18;1.33;;;;;;;;;;5078416;28;20027;-78
2023/01/09 14:21:02;;;;;;;3.85;1.40;;;;;;;;;;5061859;28;20046;-77
2023/01/09 14:23:27;;;;;;;2.72;1.30;;;;;;;;;;5078489;28;20128;-78
2023/01/09 14:25:53;;;;;;;7.53;1.40;;;;;;;;;;5078977;28;20533;-77
2023/01/09 14:28:24;;;;;;;3.50;1.40;;;;;;;;;;5078511;28;20016;-77
2023/01/09 14:30:53;;;;;;;3.47;1.40;;;;;;;;;;5061787;28;20062;-77
2023/01/09 14:33:18;;;;;;;3.15;1.30;;;;;;;;;;5077791;28;20119;-77
2023/01/09 14:35:53;;;;;;;2.63;1.13;;;;;;;;;;5078639;28;20078;-78
2023/01/09 14:38:39;;;;;;;3.97;1.30;;;;;;;;;;5078142;28;20036;-78
2023/01/09 14:41:14;;;;;;;3.35;1.27;;;;;;;;;;5095916;28;20110;-78
2023/01/09 14:43:42;;;;;;;2.58;1.17;;;;;;;;;;5095966;28;20032;-78
2023/01/09 14:46:11;;;;;;;4.50;1.58;;;;;;;;;;5096364;28;20042;-78
2023/01/09 14:48:51;;;;;;;3.92;1.23;;;;;;;;;;5077649;28;20486;-77
2023/01/09 14:51:17;;;;;;;2.97;1.20;;;;;;;;;;5077554;28;20028;-77
2023/01/09 14:53:42;;;;;;;5.65;1.45;;;;;;;;;;5095579;28;20040;-76
2023/01/09 14:56:27;;;;;;;3.35;1.30;;;;;;;;;;5044179;28;20472;-77
2023/01/09 14:59:11;;;;;;;2.53;1.30;;;;;;;;;;5077415;28;20089;-78
2023/01/09 15:01:39;;;;;;;2.70;1.35;;;;;;;;;;5060998;28;20031;-77
2023/01/09 15:04:15;;;;;;;3.10;1.15;;;;;;;;;;5077597;28;20028;-77
2023/01/09 15:06:41;;;;;;;12.30;1.40;;;;;;;;;;5060478;28;20024;-78
2023/01/09 15:09:22;;;;;;;3.15;1.35;;;;;;;;;;5095289;28;20062;-78
2023/01/09 15:11:47;;;;;;;2.78;1.30;;;;;;;;;;5095400;28;20028;-78
2023/01/09 15:14:35;;;;;;;3.38;1.23;;;;;;;;;;5094927;28;20375;-79
2023/01/09 15:17:01;;;;;;;3.60;1.65;;;;;;;;;;5094825;28;20469;-78
2023/01/09 15:19:27;;;;;;;1.83;1.10;;;;;;;;;;5076995;28;20466;-78